createdAt,value
2023-01-03T00:00:49.395Z,101488.22
2023-01-03T00:03:17.198Z,101486.34
2023-01-03T00:05:45.239Z,101494.50
2023-01-03T00:08:12.542Z,101500.41
2023-01-03T00:10:39.018Z,101499.97
2023-01-03T00:13:05.730Z,101508.91
2023-01-03T00:15:35.797Z,101508.13
2023-01-03T00:18:02.597Z,101510.19
2023-01-03T00:20:29.016Z,101502.94
2023-01-03T00:22:55.417Z,101506.03
2023-01-03T00:25:22.215Z,101519.78
2023-01-03T00:27:48.604Z,101519.91
2023-01-03T00:30:15.130Z,101523.41
2023-01-03T00:32:41.582Z,101517.44
2023-01-03T00:35:08.560Z,101514.47
2023-01-03T00:37:35.003Z,101527.69
2023-01-03T00:40:01.854Z,101532.56
2023-01-03T00:42:28.369Z,101535.28
2023-01-03T00:44:54.871Z,101548.09
2023-01-03T00:47:21.304Z,101548.97
2023-01-03T00:49:47.743Z,101550.47
2023-01-03T00:52:14.143Z,101550.06
2023-01-03T00:54:40.578Z,101554.16
2023-01-03T00:57:07.035Z,101555.06
2023-01-03T00:59:33.432Z,101569.53
2023-01-03T01:01:59.931Z,101567.00
2023-01-03T01:04:28.118Z,101568.06
2023-01-03T01:07:04.033Z,101571.84
2023-01-03T01:09:36.619Z,101578.66
2023-01-03T01:12:05.016Z,101573.81
2023-01-03T01:14:33.412Z,101572.91
2023-01-03T01:17:05.772Z,101577.97
2023-01-03T01:19:39.154Z,101585.56
2023-01-03T01:22:06.501Z,101585.88
2023-01-03T01:24:33.397Z,101585.72
2023-01-03T01:27:00.035Z,101591.78
2023-01-03T01:29:27.133Z,101592.59
2023-01-03T01:31:53.682Z,101596.34
2023-01-03T01:34:20.453Z,101596.94
2023-01-03T01:36:47.873Z,101602.56
2023-01-03T01:39:17.619Z,101600.00
2023-01-03T01:42:04.007Z,101608.94
2023-01-03T01:44:48.583Z,101614.63
2023-01-03T01:47:30.687Z,101622.69
2023-01-03T01:50:07.230Z,101623.34
2023-01-03T01:52:38.051Z,101624.25
2023-01-03T01:55:07.913Z,101631.16
2023-01-03T01:57:37.182Z,101631.22
2023-01-03T02:00:06.033Z,101632.97
2023-01-03T02:02:32.759Z,101634.84
2023-01-03T02:05:01.082Z,101644.06
2023-01-03T02:07:27.623Z,101639.31
2023-01-03T02:09:57.321Z,101635.16
2023-01-03T02:13:08.179Z,101636.88
2023-01-03T02:15:40.633Z,101637.81
2023-01-03T02:18:14.796Z,101637.53
2023-01-03T02:20:58.644Z,101641.69
2023-01-03T02:24:07.126Z,101634.09
2023-01-03T02:26:51.857Z,101643.81
2023-01-03T02:29:43.204Z,101641.88
2023-01-03T02:32:17.106Z,101658.84
2023-01-03T02:35:02.328Z,101654.59
2023-01-03T02:37:39.140Z,101651.84
2023-01-03T02:40:17.585Z,101641.88
2023-01-03T02:43:16.225Z,101654.88
2023-01-03T02:45:51.352Z,101664.63
2023-01-03T02:48:34.295Z,101651.03
2023-01-03T02:51:07.184Z,101664.25
2023-01-03T02:53:40.755Z,101670.38
2023-01-03T02:56:14.034Z,101660.47
2023-01-03T02:58:46.391Z,101658.84
2023-01-03T03:01:14.931Z,101671.25
2023-01-03T03:03:41.506Z,101657.44
2023-01-03T03:06:20.507Z,101668.13
2023-01-03T03:08:48.196Z,101675.41
2023-01-03T03:11:34.055Z,101674.50
2023-01-03T03:14:09.588Z,101672.66
2023-01-03T03:16:48.728Z,101684.19
2023-01-03T03:19:39.442Z,101679.63
2023-01-03T03:22:46.178Z,101694.63
2023-01-03T03:25:17.737Z,101691.28
2023-01-03T03:28:06.940Z,101694.00
2023-01-03T03:30:36.632Z,101698.06
2023-01-03T03:33:06.438Z,101705.09
2023-01-03T03:35:44.282Z,101706.50
2023-01-03T03:38:14.082Z,101703.81
2023-01-03T03:41:06.513Z,101698.94
2023-01-03T03:44:01.614Z,101703.34
2023-01-03T03:46:37.732Z,101702.97
2023-01-03T03:49:35.825Z,101706.00
2023-01-03T03:52:04.229Z,101708.59
2023-01-03T03:54:35.075Z,101702.50
2023-01-03T03:57:12.670Z,101712.84
2023-01-03T03:59:44.174Z,101709.50
2023-01-03T04:02:13.331Z,101711.06
2023-01-03T04:04:44.439Z,101718.50
2023-01-03T04:07:11.000Z,101715.44
2023-01-03T04:09:37.425Z,101718.41
2023-01-03T04:12:04.026Z,101720.81
2023-01-03T04:14:30.537Z,101724.63
2023-01-03T04:16:57.194Z,101724.50
2023-01-03T04:19:23.746Z,101726.41
2023-01-03T04:21:50.170Z,101727.09
2023-01-03T04:24:16.683Z,101727.78
2023-01-03T04:26:43.261Z,101726.94
2023-01-03T04:29:09.710Z,101727.81
2023-01-03T04:31:36.258Z,101721.66
2023-01-03T04:34:02.887Z,101723.44
2023-01-03T04:36:29.357Z,101727.00
2023-01-03T04:38:56.081Z,101731.28
2023-01-03T04:41:22.487Z,101740.16
2023-01-03T04:44:04.723Z,101738.25
2023-01-03T04:46:39.871Z,101743.66
2023-01-03T04:49:09.620Z,101743.38
2023-01-03T04:51:36.293Z,101747.09
2023-01-03T04:54:03.848Z,101747.03
2023-01-03T04:56:32.638Z,101740.53
2023-01-03T04:58:59.648Z,101745.22
2023-01-03T05:01:26.515Z,101752.03
2023-01-03T05:03:58.001Z,101741.09
2023-01-03T05:06:24.476Z,101748.28
2023-01-03T05:08:51.015Z,101755.41
2023-01-03T05:11:17.434Z,101751.03
2023-01-03T05:13:44.078Z,101755.28
2023-01-03T05:16:14.694Z,101754.13
2023-01-03T05:18:42.267Z,101758.56
2023-01-03T05:21:32.789Z,101761.28
2023-01-03T05:24:18.079Z,101751.53
2023-01-03T05:26:45.107Z,101754.13
2023-01-03T05:29:13.275Z,101755.06
2023-01-03T05:31:40.411Z,101761.94
2023-01-03T05:34:06.944Z,101761.81
2023-01-03T05:36:33.376Z,101763.44
2023-01-03T05:38:59.870Z,101759.97
2023-01-03T05:41:45.262Z,101753.88
2023-01-03T05:44:11.714Z,101755.41
2023-01-03T05:46:38.200Z,101764.84
2023-01-03T05:49:04.745Z,101761.72
2023-01-03T05:51:31.369Z,101768.97
2023-01-03T05:53:57.921Z,101767.88
2023-01-03T05:56:24.443Z,101768.50
2023-01-03T05:58:50.868Z,101775.66
2023-01-03T06:01:17.978Z,101773.88
2023-01-03T06:03:46.326Z,101779.22
2023-01-03T06:06:14.536Z,101777.19
2023-01-03T06:08:41.534Z,101773.09
2023-01-03T06:11:10.199Z,101779.63
2023-01-03T06:13:37.183Z,101781.66
2023-01-03T06:16:24.933Z,101781.00
2023-01-03T06:18:51.626Z,101789.25
2023-01-03T06:21:18.273Z,101778.91
2023-01-03T06:23:47.607Z,101781.22
2023-01-03T06:26:15.540Z,101785.78
2023-01-03T06:28:42.413Z,101785.31
2023-01-03T06:31:09.794Z,101785.03
2023-01-03T06:33:36.756Z,101780.53
2023-01-03T06:36:08.991Z,101787.25
2023-01-03T06:38:35.857Z,101786.91
2023-01-03T06:41:03.029Z,101791.78
2023-01-03T06:43:30.280Z,101780.09
2023-01-03T06:46:17.584Z,101790.91
2023-01-03T06:49:03.199Z,101798.97
2023-01-03T06:51:49.394Z,101801.69
2023-01-03T06:54:22.286Z,101792.41
2023-01-03T06:56:52.942Z,101802.16
2023-01-03T06:59:22.005Z,101803.78
2023-01-03T07:01:51.016Z,101798.41
2023-01-03T07:04:18.312Z,101810.28
2023-01-03T07:06:44.941Z,101806.34
2023-01-03T07:09:11.505Z,101814.06
2023-01-03T07:11:39.035Z,101822.00
2023-01-03T07:14:07.499Z,101821.53
2023-01-03T07:16:52.909Z,101827.75
2023-01-03T07:19:20.171Z,101830.41
2023-01-03T07:21:47.165Z,101836.59
2023-01-03T07:24:16.243Z,101836.91
2023-01-03T07:26:42.691Z,101831.41
2023-01-03T07:29:10.288Z,101847.66
2023-01-03T07:31:40.289Z,101852.97
2023-01-03T07:34:07.106Z,101862.81
2023-01-03T07:36:33.642Z,101863.97
2023-01-03T07:39:00.180Z,101863.66
2023-01-03T07:41:46.643Z,101854.28
2023-01-03T07:44:13.126Z,101866.31
2023-01-03T07:46:39.682Z,101880.94
2023-01-03T07:49:11.568Z,101875.66
2023-01-03T07:51:38.579Z,101878.88
2023-01-03T07:54:05.041Z,101875.50
2023-01-03T07:56:31.592Z,101870.22
2023-01-03T07:58:58.057Z,101875.53
2023-01-03T08:01:25.566Z,101880.94
2023-01-03T08:03:52.627Z,101890.03
2023-01-03T08:06:22.134Z,101894.13
2023-01-03T08:09:08.871Z,101895.22
2023-01-03T08:11:53.932Z,101898.59
2023-01-03T08:14:25.630Z,101898.53
2023-01-03T08:16:52.836Z,101885.06
2023-01-03T08:19:19.255Z,101900.06
2023-01-03T08:21:45.760Z,101896.69
2023-01-03T08:24:12.229Z,101891.78
2023-01-03T08:26:38.701Z,101894.69
2023-01-03T08:32:10.737Z,101892.38
2023-01-03T08:34:38.460Z,101899.94
2023-01-03T08:37:12.925Z,101901.28
2023-01-03T08:39:46.072Z,101911.88
2023-01-03T08:42:15.661Z,101901.56
2023-01-03T08:45:37.837Z,101895.16
2023-01-03T08:48:07.911Z,101903.56
2023-01-03T08:50:37.882Z,101906.03
2023-01-03T08:53:36.035Z,101905.34
2023-01-03T08:56:02.505Z,101914.59
2023-01-03T08:58:28.942Z,101918.13
2023-01-03T09:00:55.367Z,101917.47
2023-01-03T09:03:21.865Z,101914.88
2023-01-03T09:05:48.380Z,101924.84
2023-01-03T09:08:15.941Z,101922.97
2023-01-03T09:10:47.603Z,101924.13
2023-01-03T09:13:14.511Z,101925.31
2023-01-03T09:15:41.004Z,101931.50
2023-01-03T09:18:07.662Z,101932.28
2023-01-03T09:20:34.211Z,101942.50
2023-01-03T09:23:00.623Z,101943.38
2023-01-03T09:25:29.292Z,101937.78
2023-01-03T09:27:59.716Z,101944.41
2023-01-03T09:30:26.157Z,101938.34
2023-01-03T09:32:52.862Z,101936.72
2023-01-03T09:35:19.366Z,101936.16
2023-01-03T09:37:49.126Z,101936.53
2023-01-03T09:40:16.012Z,101946.53
2023-01-03T09:43:01.014Z,101942.38
2023-01-03T09:45:31.012Z,101950.78
2023-01-03T09:47:58.729Z,101948.59
2023-01-03T09:50:44.349Z,101947.25
2023-01-03T09:53:42.206Z,101950.44
2023-01-03T09:56:31.539Z,101942.56
2023-01-03T09:59:19.392Z,101948.34
2023-01-03T10:02:32.766Z,101944.00
2023-01-03T10:05:37.745Z,101959.09
2023-01-03T10:08:16.267Z,101953.50
2023-01-03T10:11:01.904Z,101951.75
2023-01-03T10:13:41.855Z,101947.03
2023-01-03T10:16:24.838Z,101946.22
2023-01-03T10:18:59.113Z,101943.66
2023-01-03T10:21:40.822Z,101937.84
2023-01-03T10:24:22.843Z,101926.94
2023-01-03T10:26:59.603Z,101930.53
2023-01-03T10:29:26.756Z,101935.41
2023-01-03T10:32:11.780Z,101937.75
2023-01-03T10:34:38.857Z,101930.75
2023-01-03T10:37:19.332Z,101933.72
2023-01-03T10:39:45.828Z,101927.22
2023-01-03T10:42:19.483Z,101930.69
2023-01-03T10:45:06.467Z,101932.63
2023-01-03T10:47:32.892Z,101939.81
2023-01-03T10:50:04.881Z,101930.84
2023-01-03T10:53:04.095Z,101926.16
2023-01-03T10:55:34.270Z,101915.84
2023-01-03T10:58:16.756Z,101922.25
2023-01-03T11:00:43.380Z,101929.22
2023-01-03T11:03:17.044Z,101926.72
2023-01-03T11:05:46.771Z,101923.41
2023-01-03T11:08:22.419Z,101916.03
2023-01-03T11:10:57.818Z,101915.09
2023-01-03T11:13:27.023Z,101920.06
2023-01-03T11:15:56.264Z,101918.97
2023-01-03T11:18:23.911Z,101921.34
2023-01-03T11:20:52.963Z,101918.66
2023-01-03T11:23:38.010Z,101923.78
2023-01-03T11:26:13.474Z,101921.13
2023-01-03T11:28:45.809Z,101907.13
2023-01-03T11:31:32.030Z,101912.50
2023-01-03T11:34:23.299Z,101909.56
2023-01-03T11:37:35.642Z,101908.16
2023-01-03T11:40:11.668Z,101902.41
2023-01-03T11:43:05.770Z,101897.03
2023-01-03T11:45:59.519Z,101888.03
2023-01-03T11:48:31.622Z,101888.25
2023-01-03T11:51:13.230Z,101885.31
2023-01-03T11:54:11.837Z,101883.25
2023-01-03T11:56:44.629Z,101882.84
2023-01-03T11:59:20.143Z,101874.44
2023-01-03T12:02:26.504Z,101877.28
2023-01-03T12:04:58.911Z,101869.66
2023-01-03T12:07:48.276Z,101872.94
2023-01-03T12:10:36.466Z,101867.06
2023-01-03T12:13:26.942Z,101867.91
2023-01-03T12:16:04.397Z,101869.84
2023-01-03T12:18:51.567Z,101862.66
2023-01-03T12:21:33.906Z,101859.03
2023-01-03T12:24:00.333Z,101856.63
2023-01-03T12:26:29.738Z,101845.44
2023-01-03T12:29:11.655Z,101863.53
2023-01-03T12:31:46.941Z,101843.81
2023-01-03T12:34:13.367Z,101844.81
2023-01-03T12:36:43.529Z,101840.66
2023-01-03T12:39:45.175Z,101845.31
2023-01-03T12:42:19.986Z,101840.72
2023-01-03T12:44:48.885Z,101842.69
2023-01-03T12:47:24.091Z,101848.50
2023-01-03T12:50:05.588Z,101845.28
2023-01-03T12:52:34.192Z,101846.72
2023-01-03T12:55:43.034Z,101836.97
2023-01-03T12:58:43.273Z,101837.63
2023-01-03T13:01:18.004Z,101829.59
2023-01-03T13:03:52.684Z,101832.06
2023-01-03T13:06:25.541Z,101824.41
2023-01-03T13:08:54.818Z,101825.34
2023-01-03T13:11:33.379Z,101823.75
2023-01-03T13:14:18.150Z,101820.50
2023-01-03T13:17:08.884Z,101819.63
2023-01-03T13:19:35.240Z,101815.53
2023-01-03T13:22:19.062Z,101798.63
2023-01-03T13:24:46.697Z,101802.19
2023-01-03T13:27:19.341Z,101800.19
2023-01-03T13:29:57.302Z,101797.50
2023-01-03T13:32:23.738Z,101792.28
2023-01-03T13:34:59.092Z,101795.09
2023-01-03T13:37:48.046Z,101795.69
2023-01-03T13:40:52.132Z,101794.19
2023-01-03T13:43:21.743Z,101793.22
2023-01-03T13:45:50.736Z,101797.38
2023-01-03T13:48:27.092Z,101801.28
2023-01-03T13:51:06.385Z,101807.13
2023-01-03T13:53:39.720Z,101804.84
2023-01-03T13:56:15.427Z,101807.38
2023-01-03T13:58:49.168Z,101800.69
2023-01-03T14:01:52.431Z,101803.25
2023-01-03T14:04:52.937Z,101803.34
2023-01-03T14:07:41.173Z,101799.72
2023-01-03T14:10:53.018Z,101808.22
2023-01-03T14:13:41.469Z,101803.47
2023-01-03T14:16:27.604Z,101798.00
2023-01-03T14:19:12.145Z,101804.31
2023-01-03T14:22:28.114Z,101794.34
2023-01-03T14:24:58.059Z,101799.72
2023-01-03T14:27:39.233Z,101798.84
2023-01-03T14:30:20.177Z,101800.56
2023-01-03T14:32:47.143Z,101797.03
2023-01-03T14:35:34.251Z,101798.91
2023-01-03T14:38:06.539Z,101806.13
2023-01-03T14:40:33.718Z,101804.25
2023-01-03T14:43:04.657Z,101812.31
2023-01-03T14:45:31.184Z,101812.59
2023-01-03T14:47:58.026Z,101817.69
2023-01-03T14:50:27.836Z,101819.94
2023-01-03T14:52:57.381Z,101827.06
2023-01-03T14:55:27.835Z,101830.50
2023-01-03T14:57:55.302Z,101833.28
2023-01-03T15:00:40.022Z,101822.19
2023-01-03T15:03:12.951Z,101817.13
2023-01-03T15:05:43.267Z,101831.16
2023-01-03T15:08:12.409Z,101819.88
2023-01-03T15:10:45.421Z,101835.50
2023-01-03T15:13:30.316Z,101826.16
2023-01-03T15:15:59.890Z,101815.06
2023-01-03T15:18:33.932Z,101828.56
2023-01-03T15:21:02.164Z,101816.44
2023-01-03T15:23:34.737Z,101815.88
2023-01-03T15:26:01.440Z,101820.84
2023-01-03T15:28:48.523Z,101829.91
2023-01-03T15:31:44.529Z,101823.13
2023-01-03T15:34:14.072Z,101830.84
2023-01-03T15:36:42.117Z,101842.94
2023-01-03T15:39:20.439Z,101839.34
2023-01-03T15:42:35.053Z,101848.91
2023-01-03T15:44:53.707Z,101844.25
2023-01-03T15:47:22.527Z,101843.75
2023-01-03T15:49:52.941Z,101850.72
2023-01-03T15:52:19.345Z,101851.28
2023-01-03T15:54:46.100Z,101850.16
2023-01-03T15:57:20.592Z,101854.13
2023-01-03T15:59:57.004Z,101855.34
2023-01-03T16:02:25.689Z,101846.59
2023-01-03T16:04:54.102Z,101841.00
2023-01-03T16:07:20.637Z,101846.53
2023-01-03T16:09:47.323Z,101855.06
2023-01-03T16:12:18.248Z,101838.63
2023-01-03T16:14:49.080Z,101845.00
2023-01-03T16:17:24.614Z,101850.84
2023-01-03T16:19:52.210Z,101844.88
2023-01-03T16:22:35.817Z,101838.56
2023-01-03T16:25:04.896Z,101849.41
2023-01-03T16:27:31.640Z,101839.94
2023-01-03T16:29:58.378Z,101841.03
2023-01-03T16:32:28.034Z,101850.00
2023-01-03T16:35:01.072Z,101840.69
2023-01-03T16:37:28.063Z,101842.81
2023-01-03T16:39:54.947Z,101830.97
2023-01-03T16:42:27.384Z,101839.31
2023-01-03T16:44:54.396Z,101832.41
2023-01-03T16:47:28.460Z,101840.38
2023-01-03T16:50:04.625Z,101830.44
2023-01-03T16:52:37.039Z,101836.38
2023-01-03T16:55:26.976Z,101835.28
2023-01-03T16:57:55.079Z,101828.59
2023-01-03T17:00:31.224Z,101831.00
2023-01-03T17:03:01.611Z,101828.44
2023-01-03T17:05:32.936Z,101820.41
2023-01-03T17:08:16.025Z,101822.16
2023-01-03T17:10:46.684Z,101818.66
2023-01-03T17:13:33.191Z,101814.84
2023-01-03T17:16:01.315Z,101820.66
2023-01-03T17:18:30.670Z,101807.25
2023-01-03T17:21:00.599Z,101812.00
2023-01-03T17:23:29.859Z,101806.81
2023-01-03T17:25:56.685Z,101804.06
2023-01-03T17:28:23.699Z,101810.81
2023-01-03T17:30:54.291Z,101807.59
2023-01-03T17:33:20.850Z,101811.69
2023-01-03T17:35:47.769Z,101811.28
2023-01-03T17:38:31.592Z,101809.63
2023-01-03T17:40:58.101Z,101817.72
2023-01-03T17:43:25.221Z,101812.66
2023-01-03T17:46:22.572Z,101814.19
2023-01-03T17:49:08.686Z,101811.56
2023-01-03T17:51:35.221Z,101808.47
2023-01-03T17:54:01.848Z,101811.91
2023-01-03T17:56:29.518Z,101813.78
2023-01-03T17:58:57.119Z,101812.41
2023-01-03T18:01:23.956Z,101810.66
2023-01-03T18:03:50.710Z,101806.69
2023-01-03T18:06:23.319Z,101805.91
2023-01-03T18:08:51.337Z,101796.56
2023-01-03T18:11:20.497Z,101801.72
2023-01-03T18:13:48.453Z,101805.16
2023-01-03T18:16:18.775Z,101808.94
2023-01-03T18:18:46.090Z,101812.28
2023-01-03T18:21:33.304Z,101815.88
2023-01-03T18:24:03.135Z,101810.66
2023-01-03T18:26:36.265Z,101816.91
2023-01-03T18:29:05.160Z,101809.25
2023-01-03T18:31:31.994Z,101809.09
2023-01-03T18:33:58.483Z,101808.97
2023-01-03T18:36:27.756Z,101802.03
2023-01-03T18:39:28.361Z,101797.31
2023-01-03T18:42:15.803Z,101803.53
2023-01-03T18:44:42.269Z,101803.41
2023-01-03T18:47:12.701Z,101795.47
2023-01-03T18:49:39.219Z,101797.78
2023-01-03T18:52:06.282Z,101794.63
2023-01-03T18:54:38.308Z,101798.28
2023-01-03T18:57:04.804Z,101792.88
2023-01-03T18:59:31.915Z,101794.13
2023-01-03T19:01:58.516Z,101793.03
2023-01-03T19:04:25.154Z,101800.38
2023-01-03T19:06:52.395Z,101789.06
2023-01-03T19:09:26.469Z,101782.50
2023-01-03T19:11:54.527Z,101788.22
2023-01-03T19:14:21.165Z,101780.91
2023-01-03T19:16:48.178Z,101778.16
2023-01-03T19:19:14.656Z,101794.44
2023-01-03T19:21:44.141Z,101794.38
2023-01-03T19:24:16.579Z,101794.91
2023-01-03T19:27:02.742Z,101788.75
2023-01-03T19:29:36.853Z,101786.72
2023-01-03T19:32:18.477Z,101783.38
2023-01-03T19:34:44.980Z,101782.97
2023-01-03T19:37:11.985Z,101785.72
2023-01-03T19:39:38.584Z,101777.00
2023-01-03T19:42:25.886Z,101770.91
2023-01-03T19:44:53.230Z,101772.31
2023-01-03T19:47:20.671Z,101775.75
2023-01-03T19:49:47.863Z,101771.25
2023-01-03T19:52:14.987Z,101763.34
2023-01-03T19:54:41.439Z,101767.22
2023-01-03T19:57:21.088Z,101760.69
2023-01-03T19:59:51.674Z,101757.34
2023-01-03T20:02:35.609Z,101753.53
2023-01-03T20:05:02.579Z,101747.69
2023-01-03T20:07:29.120Z,101736.00
2023-01-03T20:09:55.635Z,101736.94
2023-01-03T20:12:25.930Z,101736.31
2023-01-03T20:14:54.953Z,101733.41
2023-01-03T20:17:23.818Z,101731.25
2023-01-03T20:19:51.209Z,101731.81
2023-01-03T20:22:53.571Z,101725.97
2023-01-03T20:25:19.817Z,101728.59
2023-01-03T20:27:47.839Z,101721.00
2023-01-03T20:30:18.894Z,101725.06
2023-01-03T20:32:45.358Z,101725.03
2023-01-03T20:38:04.220Z,101723.75
2023-01-03T20:40:30.666Z,101724.81
2023-01-03T20:42:58.235Z,101717.78
2023-01-03T20:45:24.695Z,101714.16
2023-01-03T20:47:53.024Z,101713.22
2023-01-03T20:50:26.840Z,101706.72
2023-01-03T20:52:54.653Z,101711.16
2023-01-03T20:55:25.276Z,101708.56
2023-01-03T20:57:51.764Z,101715.91
2023-01-03T21:00:26.878Z,101712.00
2023-01-03T21:02:53.768Z,101703.38
2023-01-03T21:05:21.066Z,101706.66
2023-01-03T21:08:06.569Z,101694.28
2023-01-03T21:10:37.876Z,101706.72
2023-01-03T21:13:04.854Z,101699.63
2023-01-03T21:15:31.464Z,101698.22
2023-01-03T21:17:57.918Z,101698.56
2023-01-03T21:20:27.879Z,101700.72
2023-01-03T21:22:54.639Z,101701.69
2023-01-03T21:25:32.698Z,101701.50
2023-01-03T21:28:00.488Z,101699.50
2023-01-03T21:30:28.993Z,101701.81
2023-01-03T21:32:55.592Z,101696.78
2023-01-03T21:35:23.689Z,101697.34
2023-01-03T21:37:52.733Z,101673.81
2023-01-03T21:40:20.510Z,101671.81
2023-01-03T21:43:03.631Z,101677.34
2023-01-03T21:45:34.862Z,101667.75
2023-01-03T21:48:03.915Z,101660.00
2023-01-03T21:50:31.248Z,101664.50
2023-01-03T21:52:58.123Z,101661.25
2023-01-03T21:55:25.076Z,101656.38
2023-01-03T21:57:51.916Z,101664.25
2023-01-03T22:00:18.682Z,101662.25
2023-01-03T22:03:04.834Z,101652.09
2023-01-03T22:05:31.694Z,101656.44
2023-01-03T22:07:58.950Z,101646.13
2023-01-03T22:10:25.507Z,101639.22
2023-01-03T22:12:55.118Z,101636.72
2023-01-03T22:15:23.379Z,101635.44
2023-01-03T22:17:50.328Z,101633.22
2023-01-03T22:20:18.427Z,101634.25
2023-01-03T22:22:46.448Z,101629.72
2023-01-03T22:25:16.300Z,101628.56
2023-01-03T22:27:43.966Z,101632.06
2023-01-03T22:30:17.282Z,101626.13
2023-01-03T22:32:44.000Z,101614.53
2023-01-03T22:35:12.079Z,101622.81
2023-01-03T22:37:39.141Z,101622.91
2023-01-03T22:40:12.179Z,101622.75
2023-01-03T22:42:38.794Z,101621.72
2023-01-03T22:45:06.467Z,101615.09
2023-01-03T22:47:35.171Z,101614.28
2023-01-03T22:50:01.621Z,101607.41
2023-01-03T22:52:28.025Z,101610.50
2023-01-03T22:54:54.436Z,101586.94
2023-01-03T22:57:20.924Z,101584.56
2023-01-03T22:59:47.417Z,101593.22
2023-01-03T23:02:13.879Z,101585.75
2023-01-03T23:04:40.471Z,101583.56
2023-01-03T23:07:06.976Z,101592.50
2023-01-03T23:09:33.400Z,101582.94
2023-01-03T23:12:18.167Z,101580.41
2023-01-03T23:14:44.675Z,101574.00
2023-01-03T23:17:30.223Z,101588.41
2023-01-03T23:19:56.643Z,101578.50
2023-01-03T23:22:23.124Z,101561.25
2023-01-03T23:24:49.536Z,101561.28
2023-01-03T23:27:15.957Z,101554.53
2023-01-03T23:29:42.381Z,101539.41
2023-01-03T23:32:08.887Z,101538.75
2023-01-03T23:34:35.295Z,101537.34
2023-01-03T23:37:01.765Z,101532.09
2023-01-03T23:39:28.421Z,101523.63
2023-01-03T23:41:55.171Z,101520.53
2023-01-03T23:44:21.616Z,101521.84
2023-01-03T23:46:48.019Z,101526.19
2023-01-03T23:49:16.158Z,101523.41
2023-01-03T23:51:43.001Z,101519.63
2023-01-03T23:54:10.057Z,101506.78
2023-01-03T23:56:36.538Z,101504.66
2023-01-03T23:59:03.952Z,101501.91
